createdAt,value
2022-08-17T00:00:35.022Z,4.43
2022-08-17T00:03:08.188Z,4.03
2022-08-17T00:05:39.072Z,5.57
2022-08-17T00:08:07.045Z,4.87
2022-08-17T00:10:37.347Z,4.53
2022-08-17T00:13:10.819Z,4.13
2022-08-17T00:15:38.952Z,7.00
2022-08-17T00:19:05.673Z,6.87
2022-08-17T00:20:56.488Z,3.87
2022-08-17T00:23:28.494Z,3.50
2022-08-17T00:25:58.017Z,5.70
2022-08-17T00:28:26.189Z,5.60
2022-08-17T00:30:59.342Z,4.10
2022-08-17T00:33:29.629Z,3.40
2022-08-17T00:35:58.957Z,3.80
2022-08-17T00:38:28.938Z,6.17
2022-08-17T00:41:02.088Z,6.83
2022-08-17T00:43:37.278Z,4.60
2022-08-17T00:46:08.367Z,4.80
2022-08-17T00:48:36.782Z,3.20
2022-08-17T00:51:16.942Z,3.20
2022-08-17T00:53:51.245Z,3.20
2022-08-17T00:56:25.065Z,5.53
2022-08-17T00:58:55.537Z,3.57
2022-08-17T01:01:24.049Z,3.67
2022-08-17T01:03:59.255Z,3.27
2022-08-17T01:06:29.247Z,4.53
2022-08-17T01:08:59.317Z,3.20
2022-08-17T01:11:30.417Z,3.63
2022-08-17T01:13:58.425Z,4.30
2022-08-17T01:16:28.263Z,3.20
2022-08-17T01:18:59.231Z,3.33
2022-08-17T01:21:34.213Z,3.00
2022-08-17T01:24:04.143Z,2.90
2022-08-17T01:26:34.075Z,2.80
2022-08-17T01:29:03.979Z,3.30
2022-08-17T01:31:37.603Z,4.23
2022-08-17T01:34:09.681Z,3.00
2022-08-17T01:36:38.754Z,3.20
2022-08-17T01:39:15.460Z,4.77
2022-08-17T01:41:45.668Z,3.20
2022-08-17T01:44:16.786Z,3.80
2022-08-17T01:46:44.844Z,2.83
2022-08-17T01:49:13.612Z,3.87
2022-08-17T01:51:41.614Z,2.67
2022-08-17T01:54:17.480Z,4.17
2022-08-17T01:56:50.315Z,2.70
2022-08-17T01:59:19.989Z,3.00
2022-08-17T02:01:48.597Z,2.47
2022-08-17T02:04:16.971Z,4.23
2022-08-17T02:06:53.273Z,3.20
2022-08-17T02:09:25.397Z,2.60
2022-08-17T02:11:54.466Z,3.07
2022-08-17T02:14:23.383Z,3.37
2022-08-17T02:16:51.778Z,2.63
2022-08-17T02:19:20.582Z,2.83
2022-08-17T02:21:51.830Z,2.73
2022-08-17T02:25:00.213Z,2.53
2022-08-17T02:27:13.585Z,3.07
2022-08-17T02:29:41.530Z,3.03
2022-08-17T02:32:27.300Z,2.90
2022-08-17T02:34:56.503Z,3.77
2022-08-17T02:37:24.641Z,6.17
2022-08-17T02:39:54.167Z,2.80
2022-08-17T02:42:27.701Z,2.70
2022-08-17T02:44:55.660Z,3.47
2022-08-17T02:47:23.637Z,2.63
2022-08-17T02:49:55.569Z,3.63
2022-08-17T02:52:42.848Z,3.60
2022-08-17T02:55:15.289Z,2.30
2022-08-17T02:57:43.469Z,2.60
2022-08-17T03:00:15.023Z,4.17
2022-08-17T03:02:44.572Z,2.83
2022-08-17T03:05:15.828Z,4.07
2022-08-17T03:07:43.811Z,5.27
2022-08-17T03:10:14.215Z,3.10
2022-08-17T03:12:43.477Z,2.63
2022-08-17T03:15:14.208Z,2.20
2022-08-17T03:17:42.278Z,2.77
2022-08-17T03:20:11.350Z,2.57
2022-08-17T03:22:41.511Z,3.93
2022-08-17T03:25:19.870Z,2.83
2022-08-17T03:27:51.485Z,2.60
2022-08-17T03:30:21.191Z,2.20
2022-08-17T03:32:51.367Z,3.07
2022-08-17T03:35:21.890Z,2.50
2022-08-17T03:37:52.443Z,3.13
2022-08-17T03:40:55.354Z,3.97
2022-08-17T03:43:20.181Z,2.67
2022-08-17T03:46:05.929Z,2.50
2022-08-17T03:48:56.372Z,2.80
2022-08-17T03:51:43.335Z,3.50
2022-08-17T03:54:29.881Z,2.37
2022-08-17T03:57:05.019Z,2.80
2022-08-17T03:59:33.702Z,3.17
2022-08-17T04:02:07.343Z,2.50
2022-08-17T04:04:35.367Z,4.27
2022-08-17T04:07:03.389Z,2.70
2022-08-17T04:09:31.396Z,2.80
2022-08-17T04:12:02.386Z,2.20
2022-08-17T04:14:36.690Z,3.30
2022-08-17T04:17:23.166Z,2.30
2022-08-17T04:19:51.131Z,3.30
2022-08-17T04:22:33.378Z,2.90
2022-08-17T04:25:05.112Z,4.60
2022-08-17T04:27:34.457Z,2.40
2022-08-17T04:30:02.394Z,3.27
2022-08-17T04:33:03.989Z,2.70
2022-08-17T04:35:22.661Z,2.67
2022-08-17T04:37:51.146Z,3.97
2022-08-17T04:40:38.250Z,2.40
2022-08-17T04:43:09.795Z,8.10
2022-08-17T04:45:40.936Z,4.80
2022-08-17T04:48:23.892Z,2.63
2022-08-17T04:51:07.651Z,2.73
2022-08-17T04:53:36.107Z,2.87
2022-08-17T04:56:04.643Z,2.30
2022-08-17T04:58:34.135Z,6.83
2022-08-17T05:01:05.829Z,2.70
2022-08-17T05:03:36.707Z,5.83
2022-08-17T05:06:08.063Z,4.53
2022-08-17T05:08:36.044Z,2.93
2022-08-17T05:11:04.283Z,2.57
2022-08-17T05:13:33.660Z,3.03
2022-08-17T05:16:04.452Z,2.10
2022-08-17T05:18:40.377Z,2.67
2022-08-17T05:21:08.803Z,2.47
2022-08-17T05:23:42.070Z,4.30
2022-08-17T05:26:25.432Z,2.77
2022-08-17T05:28:57.194Z,2.57
2022-08-17T05:31:30.241Z,3.50
2022-08-17T05:33:58.747Z,2.33
2022-08-17T05:36:38.026Z,4.53
2022-08-17T05:39:17.106Z,2.73
2022-08-17T05:41:47.662Z,2.57
2022-08-17T05:44:17.714Z,2.70
2022-08-17T05:46:53.062Z,2.40
2022-08-17T05:49:28.079Z,2.27
2022-08-17T05:52:14.749Z,4.30
2022-08-17T05:55:02.400Z,3.20
2022-08-17T05:57:47.427Z,4.70
2022-08-17T06:00:30.540Z,2.90
2022-08-17T06:03:27.882Z,3.13
2022-08-17T06:06:05.955Z,3.93
2022-08-17T06:08:38.219Z,2.70
2022-08-17T06:11:16.319Z,2.63
2022-08-17T06:14:05.330Z,2.53
2022-08-17T06:16:38.690Z,2.80
2022-08-17T06:19:13.214Z,4.20
2022-08-17T06:21:45.136Z,3.17
2022-08-17T06:24:27.365Z,4.17
2022-08-17T06:26:58.081Z,6.97
2022-08-17T06:29:38.473Z,6.50
2022-08-17T06:32:12.639Z,6.83
2022-08-17T06:34:43.065Z,5.77
2022-08-17T06:37:26.003Z,6.00
2022-08-17T06:40:02.549Z,7.90
2022-08-17T06:42:55.042Z,5.03
2022-08-17T06:45:32.098Z,8.77
2022-08-17T06:48:08.257Z,4.37
2022-08-17T06:50:40.630Z,6.67
2022-08-17T06:53:22.121Z,4.60
2022-08-17T06:55:57.053Z,4.40
2022-08-17T06:58:31.245Z,7.47
2022-08-17T07:01:07.098Z,4.40
2022-08-17T07:03:42.587Z,2.73
2022-08-17T07:06:16.210Z,4.00
2022-08-17T07:08:51.978Z,4.23
2022-08-17T07:11:28.901Z,5.43
2022-08-17T07:14:05.535Z,3.23
2022-08-17T07:16:39.396Z,10.17
2022-08-17T07:19:10.874Z,6.07
2022-08-17T07:21:49.771Z,6.83
2022-08-17T07:24:37.188Z,6.90
2022-08-17T07:27:12.122Z,5.70
2022-08-17T07:29:43.891Z,6.07
2022-08-17T07:32:18.328Z,4.80
2022-08-17T07:35:16.519Z,5.20
2022-08-17T07:37:53.026Z,4.10
2022-08-17T07:40:28.049Z,4.60
2022-08-17T07:43:24.210Z,5.70
2022-08-17T07:46:16.834Z,4.40
2022-08-17T07:48:49.574Z,6.00
2022-08-17T07:51:26.275Z,5.53
2022-08-17T07:54:12.881Z,7.07
2022-08-17T07:56:45.136Z,6.50
2022-08-17T07:59:17.992Z,6.43
2022-08-17T08:02:05.234Z,7.77
2022-08-17T08:04:59.026Z,6.97
2022-08-17T08:07:31.829Z,5.43
2022-08-17T08:10:09.448Z,6.60
2022-08-17T08:12:41.146Z,8.77
2022-08-17T08:15:18.868Z,6.13
2022-08-17T08:17:51.798Z,6.23
2022-08-17T08:20:50.885Z,6.27
2022-08-17T08:23:26.455Z,7.27
2022-08-17T08:26:07.116Z,5.83
2022-08-17T08:28:46.551Z,6.00
2022-08-17T08:31:42.220Z,7.17
2022-08-17T08:34:44.501Z,8.33
2022-08-17T08:37:22.609Z,8.03
2022-08-17T08:40:03.385Z,7.73
2022-08-17T08:42:39.236Z,8.07
2022-08-17T08:45:16.396Z,6.70
2022-08-17T08:48:05.503Z,6.97
2022-08-17T08:50:46.482Z,6.90
2022-08-17T08:53:28.696Z,8.00
2022-08-17T08:56:05.956Z,10.23
2022-08-17T08:58:44.129Z,7.23
2022-08-17T09:01:21.931Z,8.83
2022-08-17T09:04:18.306Z,7.80
2022-08-17T09:06:57.870Z,7.37
2022-08-17T09:09:36.524Z,7.23
2022-08-17T09:12:13.903Z,7.10
2022-08-17T09:14:50.016Z,8.37
2022-08-17T09:17:21.860Z,9.33
2022-08-17T09:19:55.300Z,8.60
2022-08-17T09:22:31.286Z,10.87
2022-08-17T09:25:07.312Z,10.20
2022-08-17T09:27:53.173Z,8.13
2022-08-17T09:30:23.711Z,8.33
2022-08-17T09:32:57.420Z,8.27
2022-08-17T09:35:36.603Z,7.77
2022-08-17T09:38:14.659Z,8.60
2022-08-17T09:40:49.646Z,8.97
2022-08-17T09:43:28.504Z,8.77
2022-08-17T09:46:01.296Z,8.80
2022-08-17T09:48:36.687Z,7.70
2022-08-17T09:51:09.598Z,8.53
2022-08-17T09:53:39.141Z,8.30
2022-08-17T09:56:18.398Z,10.50
2022-08-17T09:59:03.876Z,9.77
2022-08-17T10:01:38.506Z,8.30
2022-08-17T10:04:29.330Z,8.10
2022-08-17T10:07:07.248Z,9.07
2022-08-17T10:09:45.117Z,11.30
2022-08-17T10:12:28.289Z,8.57
2022-08-17T10:15:09.719Z,9.83
2022-08-17T10:17:44.792Z,9.70
2022-08-17T10:20:18.228Z,9.37
2022-08-17T10:23:07.511Z,8.67
2022-08-17T10:25:56.571Z,9.40
2022-08-17T10:28:30.026Z,11.83
2022-08-17T10:31:33.011Z,9.87
2022-08-17T10:34:07.817Z,9.47
2022-08-17T10:36:46.202Z,10.33
2022-08-17T10:39:23.569Z,11.00
2022-08-17T10:41:56.178Z,9.80
2022-08-17T10:44:39.247Z,10.03
2022-08-17T10:47:14.940Z,9.43
2022-08-17T10:49:47.547Z,10.23
2022-08-17T10:52:48.357Z,8.50
2022-08-17T10:55:17.855Z,9.87
2022-08-17T10:57:47.597Z,8.80
2022-08-17T11:00:36.072Z,11.17
2022-08-17T11:03:17.444Z,8.93
2022-08-17T11:05:54.216Z,9.30
2022-08-17T11:08:48.476Z,10.90
2022-08-17T11:11:37.581Z,9.70
2022-08-17T11:14:29.568Z,8.67
2022-08-17T11:17:20.156Z,11.83
2022-08-17T11:20:21.045Z,10.43
2022-08-17T11:23:10.765Z,13.13
2022-08-17T11:25:41.217Z,9.67
2022-08-17T11:28:17.441Z,23.23
2022-08-17T11:30:51.895Z,13.57
2022-08-17T11:33:56.121Z,10.90
2022-08-17T11:36:51.779Z,13.67
2022-08-17T11:39:46.794Z,10.93
2022-08-17T11:42:29.915Z,11.70
2022-08-17T11:45:00.282Z,14.20
2022-08-17T11:48:23.755Z,16.03
2022-08-17T11:51:10.483Z,16.77
2022-08-17T11:54:31.283Z,15.97
2022-08-17T11:56:52.775Z,14.10
2022-08-17T11:59:59.343Z,10.87
2022-08-17T12:02:48.107Z,11.33
2022-08-17T12:05:35.032Z,10.00
2022-08-17T12:08:22.732Z,12.00
2022-08-17T12:11:01.156Z,13.47
2022-08-17T12:13:35.190Z,12.80
2022-08-17T12:16:07.234Z,12.47
2022-08-17T12:18:39.603Z,12.70
2022-08-17T12:21:28.881Z,18.87
2022-08-17T12:24:06.664Z,12.90
2022-08-17T12:26:37.726Z,14.63
2022-08-17T12:29:18.408Z,20.40
2022-08-17T12:32:02.075Z,12.40
2022-08-17T12:34:36.620Z,15.40
2022-08-17T12:37:09.106Z,11.97
2022-08-17T12:39:39.718Z,11.20
2022-08-17T12:42:23.714Z,14.80
2022-08-17T12:44:51.676Z,12.30
2022-08-17T12:47:22.630Z,11.50
2022-08-17T12:49:52.770Z,11.13
2022-08-17T12:52:24.963Z,17.13
2022-08-17T12:54:59.437Z,17.20
2022-08-17T12:57:33.072Z,14.27
2022-08-17T13:00:03.422Z,16.30
2022-08-17T13:02:42.342Z,14.80
2022-08-17T13:05:18.970Z,18.27
2022-08-17T13:07:47.708Z,16.00
2022-08-17T13:10:21.380Z,14.97
2022-08-17T13:12:52.393Z,19.30
2022-08-17T13:15:29.428Z,16.07
2022-08-17T13:18:05.424Z,17.03
2022-08-17T13:20:36.215Z,12.90
2022-08-17T13:23:12.442Z,15.17
2022-08-17T13:25:40.793Z,14.70
2022-08-17T13:28:35.486Z,14.50
2022-08-17T13:31:24.620Z,13.43
2022-08-17T13:33:52.776Z,15.80
2022-08-17T13:36:33.549Z,14.40
2022-08-17T13:39:09.657Z,16.87
2022-08-17T13:41:39.250Z,13.37
2022-08-17T13:44:32.095Z,15.77
2022-08-17T13:47:01.218Z,17.30
2022-08-17T13:49:42.072Z,18.70
2022-08-17T13:52:43.485Z,19.80
2022-08-17T13:55:19.938Z,12.77
2022-08-17T13:57:49.094Z,14.40
2022-08-17T14:00:32.636Z,12.70
2022-08-17T14:03:02.669Z,18.83
2022-08-17T14:05:32.559Z,14.63
2022-08-17T14:08:07.002Z,21.23
2022-08-17T14:10:36.467Z,14.73
2022-08-17T14:13:04.922Z,14.13
2022-08-17T14:15:54.601Z,13.57
2022-08-17T14:18:50.656Z,14.07
2022-08-17T14:21:11.508Z,19.13
2022-08-17T14:23:43.888Z,13.00
2022-08-17T14:26:23.303Z,11.83
2022-08-17T14:28:56.225Z,14.20
2022-08-17T14:31:28.610Z,13.27
2022-08-17T14:33:58.822Z,15.03
2022-08-17T14:36:31.207Z,16.03
2022-08-17T14:38:59.211Z,15.47
2022-08-17T14:41:33.216Z,17.07
2022-08-17T14:44:01.410Z,17.20
2022-08-17T14:46:30.772Z,19.60
2022-08-17T14:48:59.803Z,17.97
2022-08-17T14:51:30.299Z,16.87
2022-08-17T14:53:58.270Z,18.57
2022-08-17T14:56:27.135Z,16.73
2022-08-17T14:58:59.762Z,23.57
2022-08-17T15:01:28.533Z,18.07
2022-08-17T15:03:59.353Z,19.17
2022-08-17T15:06:27.319Z,22.63
2022-08-17T15:08:55.688Z,18.53
2022-08-17T15:11:23.599Z,18.03
2022-08-17T15:13:52.705Z,16.77
2022-08-17T15:16:23.275Z,19.37
2022-08-17T15:18:52.609Z,20.47
2022-08-17T15:21:23.211Z,19.30
2022-08-17T15:23:51.232Z,25.10
2022-08-17T15:26:26.180Z,19.80
2022-08-17T15:28:57.255Z,19.10
2022-08-17T15:31:32.154Z,19.70
2022-08-17T15:34:08.716Z,18.90
2022-08-17T15:36:38.907Z,24.43
2022-08-17T15:39:15.805Z,20.67
2022-08-17T15:41:58.626Z,23.23
2022-08-17T15:44:32.499Z,18.53
2022-08-17T15:47:09.822Z,21.33
2022-08-17T15:49:40.787Z,21.27
2022-08-17T15:52:17.394Z,20.30
2022-08-17T15:54:55.153Z,18.23
2022-08-17T15:57:24.595Z,21.37
2022-08-17T15:59:58.444Z,20.37
2022-08-17T16:03:44.866Z,17.77
2022-08-17T16:05:24.775Z,17.30
2022-08-17T16:07:54.856Z,19.20
2022-08-17T16:10:34.801Z,16.43
2022-08-17T16:13:04.986Z,16.10
2022-08-17T16:15:33.586Z,16.07
2022-08-17T16:18:01.644Z,15.63
2022-08-17T16:20:30.600Z,22.77
2022-08-17T16:22:59.925Z,20.90
2022-08-17T16:25:52.504Z,15.13
2022-08-17T16:28:21.774Z,17.17
2022-08-17T16:30:49.809Z,16.00
2022-08-17T16:33:18.543Z,16.67
2022-08-17T16:35:46.604Z,17.53
2022-08-17T16:38:15.956Z,16.20
2022-08-17T16:40:43.927Z,20.60
2022-08-17T16:43:11.936Z,15.03
2022-08-17T16:45:40.707Z,14.73
2022-08-17T16:48:10.063Z,16.23
2022-08-17T16:50:38.898Z,18.83
2022-08-17T16:53:08.901Z,17.63
2022-08-17T16:55:39.225Z,16.13
2022-08-17T16:58:08.794Z,16.10
2022-08-17T17:00:37.287Z,15.47
2022-08-17T17:03:19.517Z,16.43
2022-08-17T17:05:58.404Z,16.83
2022-08-17T17:08:31.332Z,15.83
2022-08-17T17:11:09.168Z,16.17
2022-08-17T17:13:42.423Z,15.47
2022-08-17T17:16:19.215Z,17.23
2022-08-17T17:19:03.222Z,15.23
2022-08-17T17:21:47.934Z,14.20
2022-08-17T17:24:22.464Z,16.63
2022-08-17T17:27:19.582Z,16.20
2022-08-17T17:30:00.447Z,15.13
2022-08-17T17:32:35.861Z,12.73
2022-08-17T17:35:09.988Z,17.03
2022-08-17T17:37:41.758Z,18.17
2022-08-17T17:40:17.561Z,14.70
2022-08-17T17:42:46.924Z,18.60
2022-08-17T17:45:21.660Z,17.27
2022-08-17T17:47:50.466Z,18.57
2022-08-17T17:50:20.892Z,18.07
2022-08-17T17:52:57.821Z,24.10
2022-08-17T17:55:46.373Z,15.97
2022-08-17T17:58:28.263Z,12.83
2022-08-17T18:01:17.525Z,11.47
2022-08-17T18:04:17.017Z,14.73
2022-08-17T18:07:21.047Z,16.10
2022-08-17T18:10:13.717Z,15.87
2022-08-17T18:13:08.338Z,14.03
2022-08-17T18:15:49.356Z,16.37
2022-08-17T18:18:37.424Z,14.27
2022-08-17T18:21:16.794Z,24.20
2022-08-17T18:23:51.999Z,14.63
2022-08-17T18:26:46.497Z,21.50
2022-08-17T18:29:23.382Z,16.40
2022-08-17T18:32:18.970Z,12.67
2022-08-17T18:34:49.273Z,14.80
2022-08-17T18:37:33.986Z,15.90
2022-08-17T18:40:32.746Z,15.53
2022-08-17T18:43:09.792Z,21.67
2022-08-17T18:45:42.723Z,15.13
2022-08-17T18:48:32.898Z,14.13
2022-08-17T18:51:07.340Z,13.47
2022-08-17T18:53:39.099Z,12.77
2022-08-17T18:56:30.584Z,11.87
2022-08-17T18:59:19.934Z,11.43
2022-08-17T19:02:07.593Z,12.40
2022-08-17T19:04:44.069Z,11.13
2022-08-17T19:07:25.758Z,10.83
2022-08-17T19:09:57.942Z,11.30
2022-08-17T19:12:31.087Z,10.43
2022-08-17T19:15:00.979Z,10.83
2022-08-17T19:17:38.768Z,11.63
2022-08-17T19:20:15.608Z,10.90
2022-08-17T19:22:52.975Z,11.90
2022-08-17T19:25:25.587Z,12.03
2022-08-17T19:27:58.551Z,11.17
2022-08-17T19:30:27.701Z,11.40
2022-08-17T19:32:57.656Z,11.70
2022-08-17T19:35:41.982Z,11.17
2022-08-17T19:38:18.535Z,11.20
2022-08-17T19:40:59.547Z,11.17
2022-08-17T19:43:47.878Z,11.63
2022-08-17T19:46:25.954Z,10.27
2022-08-17T19:49:03.767Z,11.67
2022-08-17T19:51:43.313Z,11.80
2022-08-17T19:54:21.259Z,10.67
2022-08-17T19:56:58.375Z,11.67
2022-08-17T19:59:49.346Z,12.13
2022-08-17T20:02:29.135Z,11.83
2022-08-17T20:05:02.701Z,13.63
2022-08-17T20:07:43.249Z,11.87
2022-08-17T20:10:18.668Z,12.40
2022-08-17T20:12:48.584Z,12.40
2022-08-17T20:15:25.281Z,11.53
2022-08-17T20:17:53.550Z,12.03
2022-08-17T20:20:29.828Z,12.13
2022-08-17T20:23:05.552Z,13.40
2022-08-17T20:25:38.365Z,11.13
2022-08-17T20:28:19.445Z,11.87
2022-08-17T20:30:47.459Z,12.40
2022-08-17T20:33:26.807Z,11.73
2022-08-17T20:36:05.802Z,12.80
2022-08-17T20:38:45.469Z,11.87
2022-08-17T20:41:16.945Z,17.83
2022-08-17T20:43:52.343Z,12.83
2022-08-17T20:46:31.419Z,21.93
2022-08-17T20:49:16.356Z,15.90
2022-08-17T20:52:01.282Z,13.07
2022-08-17T20:54:48.184Z,11.63
2022-08-17T20:57:48.908Z,12.37
2022-08-17T21:00:46.253Z,12.17
2022-08-17T21:03:57.308Z,13.87
2022-08-17T21:06:26.542Z,11.93
2022-08-17T21:08:58.756Z,12.03
2022-08-17T21:12:04.252Z,13.87
2022-08-17T21:14:56.078Z,14.23
2022-08-17T21:17:43.464Z,12.97
2022-08-17T21:20:25.556Z,13.87
2022-08-17T21:23:06.690Z,14.30
2022-08-17T21:25:53.981Z,16.93
2022-08-17T21:28:33.870Z,14.87
2022-08-17T21:31:08.422Z,14.97
2022-08-17T21:33:39.902Z,15.63
2022-08-17T21:36:25.010Z,14.43
2022-08-17T21:39:03.894Z,15.03
2022-08-17T21:41:44.699Z,15.40
2022-08-17T21:44:22.283Z,15.57
2022-08-17T21:46:52.583Z,15.23
2022-08-17T21:49:26.343Z,16.70
2022-08-17T21:51:56.295Z,16.43
2022-08-17T21:54:33.881Z,16.43
2022-08-17T21:57:04.976Z,15.97
2022-08-17T21:59:38.409Z,17.00
2022-08-17T22:02:09.253Z,16.80
2022-08-17T22:04:39.530Z,18.10
2022-08-17T22:07:10.320Z,18.00
2022-08-17T22:09:43.960Z,16.77
2022-08-17T22:12:16.219Z,16.57
2022-08-17T22:14:52.154Z,17.40
2022-08-17T22:17:25.087Z,16.50
2022-08-17T22:19:55.323Z,16.47
2022-08-17T22:22:32.388Z,15.87
2022-08-17T22:25:01.616Z,14.67
2022-08-17T22:27:56.361Z,13.93
2022-08-17T22:30:37.255Z,14.80
2022-08-17T22:33:31.892Z,13.90
2022-08-17T22:36:11.866Z,16.10
2022-08-17T22:38:40.677Z,17.07
2022-08-17T22:41:25.782Z,16.50
2022-08-17T22:43:57.332Z,17.37
2022-08-17T22:46:26.872Z,17.70
2022-08-17T22:48:57.801Z,18.47
2022-08-17T22:51:29.827Z,18.80
2022-08-17T22:54:18.869Z,18.50
2022-08-17T22:57:11.281Z,17.23
2022-08-17T22:59:49.346Z,18.07
2022-08-17T23:02:25.506Z,16.93
2022-08-17T23:04:59.032Z,17.50
2022-08-17T23:07:27.002Z,18.70
2022-08-17T23:09:55.284Z,18.70
2022-08-17T23:12:27.235Z,18.07
2022-08-17T23:15:01.477Z,19.17
2022-08-17T23:17:36.937Z,17.97
2022-08-17T23:20:08.167Z,18.13
2022-08-17T23:22:37.097Z,17.03
2022-08-17T23:25:05.903Z,17.57
2022-08-17T23:27:33.936Z,17.60
2022-08-17T23:30:01.881Z,19.23
2022-08-17T23:32:31.477Z,22.73
2022-08-17T23:34:59.455Z,21.73
2022-08-17T23:37:28.342Z,22.30
2022-08-17T23:39:56.317Z,23.30
2022-08-17T23:42:24.408Z,19.30
2022-08-17T23:44:52.367Z,19.10
2022-08-17T23:47:21.253Z,21.77
2022-08-17T23:49:50.491Z,22.50
2022-08-17T23:52:23.107Z,21.10
2022-08-17T23:54:51.064Z,22.47
2022-08-17T23:57:20.783Z,20.80
